Nanga Mai — OR9905 — position and weather

sailwx.info

Track history (hours):
 
Tides and Currents Weather Stations Pressure Air Temp Water Temp Dewpoint Dewpoint Depression Visibility Wind Speed Wind Dir Waves Ship Positions

Nanga Mai

Last reported at 2018-May-01 11:44 UTC. Time now 2018-Jun-17 22:04 UTC.
Position N 51°20' E 002°49'.
Warning: this ship's position is 47 days out of date.

Length 13 m.

Type: Sailing vessel. MMSI: 205990510.

Date/timePositionNaut miles runAvg speedWind from/ knotsBaromVisibWave heightAir tempDewpointWater temp
2018-May-01 11:44N 51°20' E 002°49'1 5.9
2018-May-01 11:30N 51°19' E 002°48'3 5.4
2018-May-01 11:00N 51°16' E 002°47'3 5.1
2018-May-01 10:30N 51°14' E 002°46'2 4.8
2018-May-01 10:00N 51°11' E 002°44'2 3.6
2018-May-01 09:31N 51°10' E 002°43'2 0.0
2018-Apr-29 14:17N 51°09' E 002°44'1 4.4
2018-Apr-29 13:58N 51°10' E 002°43'3 6.9
2018-Apr-29 13:30N 51°10' E 002°38'38 7.2
2018-Apr-29 08:14N 51°19' E 001°39'2 6.4
2018-Apr-29 08:00N 51°19' E 001°36'3 6.5
2018-Apr-29 07:30N 51°19' E 001°31'3 5.1
2018-Apr-29 07:00N 51°19' E 001°27'1 2.0
2018-Apr-29 06:29N 51°20' E 001°25'0 0.0
2018-Apr-28 18:18N 51°20' E 001°25'0 0.0
2018-Apr-28 18:00N 51°20' E 001°25'0 0.0
2018-Apr-28 17:30N 51°20' E 001°25'0 0.4
2018-Apr-28 17:00N 51°20' E 001°25'2 4.8
2018-Apr-28 16:30N 51°19' E 001°29'2 4.4
2018-Apr-28 16:00N 51°19' E 001°33'0 0.1
2018-Apr-28 15:30N 51°19' E 001°33'2 3.2
2018-Apr-28 15:00N 51°19' E 001°30'1 1.2
2018-Apr-28 14:30N 51°20' E 001°31'2 4.0
2018-Apr-28 14:00N 51°20' E 001°34'2 3.3
2018-Apr-28 13:30N 51°21' E 001°37'44 2.2
2018-Apr-27 17:37N 51°08' E 002°44'0 2.2
2018-Apr-27 17:30N 51°09' E 002°44'3 5.1
2018-Apr-27 16:59N 51°11' E 002°44'3 5.5
2018-Apr-27 16:29N 51°14' E 002°45'3 5.6
2018-Apr-27 15:59N 51°16' E 002°47'3 5.4
2018-Apr-27 15:29N 51°19' E 002°50'2 4.8
2018-Apr-27 14:59N 51°20' E 002°52'  
Track history (hours):
 
Tides and Currents Weather Stations Pressure Air Temp Water Temp Dewpoint Dewpoint Depression Visibility Wind Speed Wind Dir Waves Ship Positions

Nanga Mai

Last reported at 2018-May-01 11:44 UTC. Time now 2018-Jun-17 22:04 UTC.
Position N 51°20' E 002°49'.
Warning: this ship's position is 47 days out of date.

Length 13 m.

Type: Sailing vessel. MMSI: 205990510.

Date/timePositionNaut miles runAvg speedWind from/ knotsBaromVisibWave heightAir tempDewpointWater temp
2018-May-01 11:44N 51°20' E 002°49'1 5.9
2018-May-01 11:30N 51°19' E 002°48'3 5.4
2018-May-01 11:00N 51°16' E 002°47'3 5.1
2018-May-01 10:30N 51°14' E 002°46'2 4.8
2018-May-01 10:00N 51°11' E 002°44'2 3.6
2018-May-01 09:31N 51°10' E 002°43'2 0.0
2018-Apr-29 14:17N 51°09' E 002°44'1 4.4
2018-Apr-29 13:58N 51°10' E 002°43'3 6.9
2018-Apr-29 13:30N 51°10' E 002°38'38 7.2
2018-Apr-29 08:14N 51°19' E 001°39'2 6.4
2018-Apr-29 08:00N 51°19' E 001°36'3 6.5
2018-Apr-29 07:30N 51°19' E 001°31'3 5.1
2018-Apr-29 07:00N 51°19' E 001°27'1 2.0
2018-Apr-29 06:29N 51°20' E 001°25'0 0.0
2018-Apr-28 18:18N 51°20' E 001°25'0 0.0
2018-Apr-28 18:00N 51°20' E 001°25'0 0.0
2018-Apr-28 17:30N 51°20' E 001°25'0 0.4
2018-Apr-28 17:00N 51°20' E 001°25'2 4.8
2018-Apr-28 16:30N 51°19' E 001°29'2 4.4
2018-Apr-28 16:00N 51°19' E 001°33'0 0.1
2018-Apr-28 15:30N 51°19' E 001°33'2 3.2
2018-Apr-28 15:00N 51°19' E 001°30'1 1.2
2018-Apr-28 14:30N 51°20' E 001°31'2 4.0
2018-Apr-28 14:00N 51°20' E 001°34'2 3.3
2018-Apr-28 13:30N 51°21' E 001°37'44 2.2
2018-Apr-27 17:37N 51°08' E 002°44'0 2.2
2018-Apr-27 17:30N 51°09' E 002°44'3 5.1
2018-Apr-27 16:59N 51°11' E 002°44'3 5.5
2018-Apr-27 16:29N 51°14' E 002°45'3 5.6
2018-Apr-27 15:59N 51°16' E 002°47'3 5.4
2018-Apr-27 15:29N 51°19' E 002°50'2 4.8
2018-Apr-27 14:59N 51°20' E 002°52'  

Dump ship's entire track history